Time;durP1;ratioP1;P1;durP2;ratioP2;P2;SDS_P1;SDS_P2;PMS_P1;PMS_P2;Temp;Humidity;BMP_temperature;BMP_pressure;BME280_temperature;BME280_humidity;BME280_pressure;Samples;Min_cycle;Max_cycle;Signal;HPM_P1;HPM_P2
2023/05/13 00:09:52;;;;;;;;;;;11.20;99.90;;;;;;4970925;28;19933;-76
2023/05/13 00:12:18;;;;;;;;;;;11.20;99.90;;;;;;4939509;29;19926;-76
2023/05/13 00:14:43;;;;;;;;;;;11.30;99.90;;;;;;4954690;29;19927;-76
2023/05/13 00:17:11;;;;;;;;;;;11.20;99.90;;;;;;4955164;29;20017;-76
2023/05/13 00:19:37;;;;;;;;;;;11.20;99.90;;;;;;4938207;29;19926;-76
2023/05/13 00:22:02;;;;;;;;;;;11.10;99.90;;;;;;4953051;29;19930;-77
2023/05/13 00:24:28;;;;;;;;;;;11.20;99.90;;;;;;4955038;29;19931;-76
2023/05/13 00:29:30;;;;;;;;;;;11.20;99.90;;;;;;5702664;23;19972;-76
2023/05/13 00:31:56;;;;;;;;;;;11.20;99.90;;;;;;5015384;28;19925;-76
2023/05/13 00:34:24;;;;;;;;;;;11.20;99.90;;;;;;5015424;28;20372;-76
2023/05/13 00:36:56;;;;;;;;;;;11.20;99.90;;;;;;5014127;28;19951;-76
2023/05/13 00:39:27;;;;;;;;;;;11.20;99.90;;;;;;5033476;28;20016;-76
2023/05/13 00:47:10;;;;;;;;;;;11.20;99.90;;;;;;5225827;23;19925;-76
2023/05/13 00:58:04;;;;;;;;;;;9.70;99.90;;;;;;5597116;22;19929;-76
2023/05/13 01:00:30;;;;;;;;;;;11.10;99.90;;;;;;5043861;22;20563;-76
2023/05/13 01:03:00;;;;;;;;;;;11.10;99.90;;;;;;5049371;28;19925;-77
2023/05/13 01:05:29;;;;;;;;;;;11.10;99.90;;;;;;5046580;28;19947;-77
2023/05/13 01:08:01;;;;;;;;;;;11.10;99.90;;;;;;5052249;28;20421;-76
2023/05/13 01:10:36;;;;;;;;;;;11.10;99.90;;;;;;5113101;23;20304;-76
2023/05/13 01:13:07;;;;;;;;;;;11.00;99.90;;;;;;5032293;28;20401;-76
2023/05/13 01:15:38;;;;;;;;;;;11.10;99.90;;;;;;5027944;28;20051;-77
2023/05/13 01:34:03;;;;;;;;;;;11.00;99.90;;;;;;5288256;22;20301;-76
2023/05/13 01:39:53;;;;;;;;;;;11.00;99.90;;;;;;5292160;22;19930;-75
2023/05/13 01:42:22;;;;;;;;;;;11.00;99.90;;;;;;5035119;28;20280;-75
2023/05/13 01:44:47;;;;;;;;;;;10.90;99.90;;;;;;5052778;28;19924;-76
2023/05/13 01:47:13;;;;;;;;;;;10.90;99.90;;;;;;5052185;28;19928;-76
2023/05/13 01:49:38;;;;;;;;;;;10.90;99.90;;;;;;5038430;28;19925;-75
2023/05/13 01:52:05;;;;;;;;;;;10.90;99.90;;;;;;5056076;28;19936;-75
2023/05/13 01:54:31;;;;;;;;;;;10.90;99.90;;;;;;5041515;28;19925;-76
2023/05/13 01:57:04;;;;;;;;;;;10.90;99.90;;;;;;5041315;28;20374;-75
2023/05/13 01:59:32;;;;;;;;;;;10.80;99.90;;;;;;5058517;28;20284;-75
2023/05/13 02:02:01;;;;;;;;;;;10.80;99.90;;;;;;5040826;28;19933;-77
2023/05/13 02:04:29;;;;;;;;;;;10.80;99.90;;;;;;5059450;28;19938;-76
2023/05/13 02:06:54;;;;;;;;;;;10.80;99.90;;;;;;5058657;28;19935;-77
2023/05/13 02:09:20;;;;;;;;;;;10.80;99.90;;;;;;5059513;28;19925;-76
2023/05/13 02:11:46;;;;;;;;;;;10.70;99.90;;;;;;5054543;28;19970;-76
2023/05/13 02:14:11;;;;;;;;;;;10.80;99.90;;;;;;5054417;28;20028;-76
2023/05/13 02:16:37;;;;;;;;;;;10.70;99.90;;;;;;5037670;28;19925;-76
2023/05/13 02:19:02;;;;;;;;;;;10.70;99.90;;;;;;5055484;28;19924;-77
2023/05/13 02:21:28;;;;;;;;;;;10.70;99.90;;;;;;5054851;28;20382;-77
2023/05/13 02:23:53;;;;;;;;;;;10.70;99.90;;;;;;5037312;28;19925;-77
2023/05/13 02:26:19;;;;;;;;;;;10.70;99.90;;;;;;5037480;28;19925;-77
2023/05/13 02:28:45;;;;;;;;;;;10.60;99.90;;;;;;5054729;28;19925;-77
2023/05/13 02:31:10;;;;;;;;;;;10.60;99.90;;;;;;5055202;28;20060;-77
2023/05/13 02:33:36;;;;;;;;;;;10.60;99.90;;;;;;5037440;28;19932;-76
2023/05/13 02:36:01;;;;;;;;;;;10.60;99.90;;;;;;5036555;28;19995;-77
2023/05/13 02:38:27;;;;;;;;;;;10.50;99.90;;;;;;5055569;28;20445;-77
2023/05/13 02:40:52;;;;;;;;;;;10.50;99.90;;;;;;5037040;28;20288;-76
2023/05/13 02:43:18;;;;;;;;;;;10.50;99.90;;;;;;5036539;28;19925;-77
2023/05/13 02:45:48;;;;;;;;;;;10.90;99.90;;;;;;5037057;28;19932;-77
2023/05/13 02:48:14;;;;;;;;;;;10.50;99.90;;;;;;5054671;28;19921;-77
2023/05/13 02:50:40;;;;;;;;;;;10.60;99.90;;;;;;5037236;28;19952;-77
2023/05/13 02:53:05;;;;;;;;;;;10.70;99.90;;;;;;5037113;28;19921;-77
2023/05/13 02:55:31;;;;;;;;;;;10.50;99.90;;;;;;5036362;28;19929;-77
2023/05/13 02:57:57;;;;;;;;;;;10.60;99.90;;;;;;5037064;28;19925;-77
2023/05/13 03:00:22;;;;;;;;;;;11.00;99.90;;;;;;5035620;28;19921;-76
2023/05/13 03:02:48;;;;;;;;;;;10.40;99.90;;;;;;5035892;28;19979;-77
2023/05/13 03:05:58;;;;;;;;;;;10.40;99.90;;;;;;5222887;22;19911;-76
2023/05/13 03:08:30;;;;;;;;;;;10.40;99.90;;;;;;5007740;28;19988;-76
2023/05/13 03:11:02;;;;;;;;;;;10.90;99.90;;;;;;5016025;28;19925;-77
2023/05/13 03:14:02;;;;;;;;;;;9.20;99.90;;;;;;5034586;28;19925;-76
2023/05/13 03:17:02;;;;;;;;;;;10.90;99.90;;;;;;5033975;28;20016;-77
2023/05/13 03:23:27;;;;;;;;;;;9.40;99.90;;;;;;5034273;28;19927;-77
2023/05/13 03:25:58;;;;;;;;;;;10.80;99.90;;;;;;5016182;28;19932;-77
2023/05/13 03:28:33;;;;;;;;;;;10.50;99.90;;;;;;5016919;28;19925;-77
2023/05/13 03:34:35;;;;;;;;;;;10.40;99.90;;;;;;4979302;28;19937;-77
2023/05/13 03:43:59;;;;;;;;;;;10.70;99.90;;;;;;4973072;28;20313;-77
2023/05/13 03:46:37;;;;;;;;;;;;;;;;;;;;;
2023/05/13 03:49:25;;;;;;;;;;;8.90;99.90;;;;;;4946712;28;20013;-77
2023/05/13 03:58:15;;;;;;;;;;;10.40;99.90;;;;;;5220800;22;19932;-77
2023/05/13 04:00:41;;;;;;;;;;;10.30;99.90;;;;;;5035048;28;19925;-77
2023/05/13 04:03:08;;;;;;;;;;;10.10;99.90;;;;;;5053475;28;20301;-77
2023/05/13 04:05:33;;;;;;;;;;;10.30;99.90;;;;;;5034775;28;19981;-77
2023/05/13 04:07:59;;;;;;;;;;;10.50;99.90;;;;;;5053377;28;19921;-77
2023/05/13 04:10:24;;;;;;;;;;;10.50;99.90;;;;;;5035361;28;20406;-77
2023/05/13 04:12:50;;;;;;;;;;;10.30;99.90;;;;;;5052271;28;19948;-76
2023/05/13 04:15:15;;;;;;;;;;;11.80;99.90;;;;;;5053270;28;19936;-77
2023/05/13 04:17:44;;;;;;;;;;;10.40;99.90;;;;;;5331173;22;19931;-76
2023/05/13 04:24:14;;;;;;;;;;;11.30;99.90;;;;;;5052846;28;20015;-76
2023/05/13 05:26:47;;;;;;;;;;;12.10;99.90;;;;;;5005046;28;20013;-77
2023/05/13 05:29:12;;;;;;;;;;;11.50;99.90;;;;;;5018990;28;20351;-77
2023/05/13 05:31:40;;;;;;;;;;;11.50;99.90;;;;;;5007454;28;19933;-77
2023/05/13 05:49:35;;;;;;;;;;;11.70;99.90;;;;;;5510414;22;19912;-77
2023/05/13 05:52:01;;;;;;;;;;;13.40;99.90;;;;;;5016093;28;19964;-77
2023/05/13 06:01:35;;;;;;;;;;;13.00;99.90;;;;;;5034765;28;20003;-77
2023/05/13 06:04:01;;;;;;;;;;;13.40;99.90;;;;;;5016997;28;19925;-78
2023/05/13 06:06:27;;;;;;;;;;;12.40;99.90;;;;;;5033864;28;20011;-78
2023/05/13 06:08:55;;;;;;;;;;;12.50;99.90;;;;;;5017640;28;19992;-78
2023/05/13 06:11:20;;;;;;;;;;;12.60;99.90;;;;;;5014358;28;20373;-78
2023/05/13 06:59:57;;;;;;;;;;;14.10;99.90;;;;;;4951718;28;19938;-76
2023/05/13 07:02:23;;;;;;;;;;;15.50;99.90;;;;;;5002421;23;20392;-76
2023/05/13 07:07:24;;;;;;;;;;;14.40;99.90;;;;;;5687127;22;20395;-77
2023/05/13 07:09:49;;;;;;;;;;;14.20;99.90;;;;;;5052940;28;19970;-74
2023/05/13 07:12:15;;;;;;;;;;;14.50;99.90;;;;;;5050353;28;19969;-77
2023/05/13 07:14:42;;;;;;;;;;;14.60;99.90;;;;;;5052293;28;19925;-77
2023/05/13 07:17:08;;;;;;;;;;;14.70;99.90;;;;;;5053033;28;19928;-79
2023/05/13 07:19:33;;;;;;;;;;;14.90;99.90;;;;;;5054562;28;19924;-78
2023/05/13 07:21:59;;;;;;;;;;;15.00;99.90;;;;;;5053222;28;20383;-76
2023/05/13 07:24:24;;;;;;;;;;;15.20;99.90;;;;;;5053866;28;20391;-76
2023/05/13 07:26:50;;;;;;;;;;;15.60;99.90;;;;;;5053286;28;19947;-78
2023/05/13 07:29:18;;;;;;;;;;;16.50;99.90;;;;;;5059566;28;19925;-73
2023/05/13 07:31:44;;;;;;;;;;;17.40;99.90;;;;;;5059697;28;20375;-74
2023/05/13 07:34:09;;;;;;;;;;;18.10;99.90;;;;;;5059089;28;19924;-79
2023/05/13 07:36:35;;;;;;;;;;;18.90;99.90;;;;;;5050442;28;19932;-76
2023/05/13 07:39:01;;;;;;;;;;;19.40;99.90;;;;;;5052946;28;20028;-73
2023/05/13 07:41:33;;;;;;;;;;;19.90;99.90;;;;;;5053665;28;19932;-74
2023/05/13 07:43:59;;;;;;;;;;;20.30;99.90;;;;;;5051168;28;19952;-73
2023/05/13 07:46:24;;;;;;;;;;;20.90;99.90;;;;;;5052122;28;20364;-74
2023/05/13 07:48:50;;;;;;;;;;;21.30;99.90;;;;;;5051218;28;19928;-74
2023/05/13 07:51:17;;;;;;;;;;;21.60;99.90;;;;;;5067878;28;19925;-74
2023/05/13 07:53:44;;;;;;;;;;;21.90;99.90;;;;;;5072049;28;19924;-73
2023/05/13 07:56:10;;;;;;;;;;;22.00;99.80;;;;;;5070395;28;19931;-74
2023/05/13 07:58:36;;;;;;;;;;;22.40;99.80;;;;;;5069129;28;20279;-73
2023/05/13 08:01:03;;;;;;;;;;;22.80;99.90;;;;;;5068857;28;19928;-76
2023/05/13 08:03:29;;;;;;;;;;;22.70;97.30;;;;;;5069883;28;19989;-76
2023/05/13 08:05:58;;;;;;;;;;;23.10;98.60;;;;;;5068878;28;19965;-75
2023/05/13 08:08:23;;;;;;;;;;;23.20;98.30;;;;;;5070640;28;19951;-76
2023/05/13 08:10:49;;;;;;;;;;;23.60;97.20;;;;;;5071080;28;20376;-77
2023/05/13 08:13:17;;;;;;;;;;;23.70;98.00;;;;;;5071164;28;19924;-75
2023/05/13 08:15:52;;;;;;;;;;;23.70;97.70;;;;;;5071054;28;19951;-75
2023/05/13 08:18:18;;;;;;;;;;;23.90;96.80;;;;;;5072706;28;19932;-76
2023/05/13 08:20:43;;;;;;;;;;;23.90;96.10;;;;;;5071544;28;19928;-75
2023/05/13 08:23:09;;;;;;;;;;;23.90;95.20;;;;;;5072498;28;19929;-76
2023/05/13 08:25:38;;;;;;;;;;;24.00;96.10;;;;;;5072515;28;19931;-76
2023/05/13 08:28:03;;;;;;;;;;;23.80;95.60;;;;;;5071758;28;19924;-77
2023/05/13 08:30:29;;;;;;;;;;;23.90;95.70;;;;;;5071151;28;19924;-75
2023/05/13 08:32:58;;;;;;;;;;;24.00;95.20;;;;;;5070291;28;19968;-75
2023/05/13 08:35:26;;;;;;;;;;;23.90;94.70;;;;;;5065171;28;19920;-75
2023/05/13 08:37:52;;;;;;;;;;;23.80;94.80;;;;;;5052442;28;19931;-75
2023/05/13 08:40:17;;;;;;;;;;;24.00;95.20;;;;;;5050446;28;20011;-75
2023/05/13 08:42:46;;;;;;;;;;;24.20;94.90;;;;;;5052404;28;19929;-75
2023/05/13 08:45:14;;;;;;;;;;;24.30;95.20;;;;;;5052367;28;19978;-75
2023/05/13 08:47:53;;;;;;;;;;;24.00;94.00;;;;;;5050700;28;19932;-76
2023/05/13 08:50:19;;;;;;;;;;;24.10;94.50;;;;;;5052456;28;19931;-75
2023/05/13 08:52:45;;;;;;;;;;;24.10;94.50;;;;;;5052127;28;20301;-76
2023/05/13 08:55:11;;;;;;;;;;;24.30;94.50;;;;;;5050271;28;19925;-76
2023/05/13 08:57:36;;;;;;;;;;;24.70;94.50;;;;;;5052816;28;19925;-76
2023/05/13 09:00:05;;;;;;;;;;;24.70;94.60;;;;;;5057938;28;19924;-75
2023/05/13 09:02:31;;;;;;;;;;;24.90;94.60;;;;;;5076395;28;19925;-76
2023/05/13 09:04:58;;;;;;;;;;;25.10;93.50;;;;;;5076069;28;19977;-76
2023/05/13 09:07:24;;;;;;;;;;;25.20;92.40;;;;;;5063251;28;19929;-76
2023/05/13 09:09:50;;;;;;;;;;;24.80;93.00;;;;;;5055773;28;19935;-79
2023/05/13 09:12:34;;;;;;;;;;;24.90;94.10;;;;;;5057211;28;19920;-78
2023/05/13 09:15:02;;;;;;;;;;;24.90;93.40;;;;;;5055624;28;20384;-78
2023/05/13 09:17:28;;;;;;;;;;;25.00;92.50;;;;;;5048698;28;20353;-78
2023/05/13 09:19:54;;;;;;;;;;;25.30;93.20;;;;;;5052401;28;20376;-76
2023/05/13 09:27:37;;;;;;;;;;;25.70;91.40;;;;;;5052494;28;19947;-76
2023/05/13 09:30:02;;;;;;;;;;;26.10;92.30;;;;;;5036282;28;19924;-76
2023/05/13 09:32:28;;;;;;;;;;;26.10;91.40;;;;;;5056304;28;20030;-75
2023/05/13 09:34:53;;;;;;;;;;;26.10;91.40;;;;;;5034327;28;20394;-76
2023/05/13 09:37:22;;;;;;;;;;;25.90;91.90;;;;;;5034558;28;19929;-76
2023/05/13 09:39:50;;;;;;;;;;;25.90;91.60;;;;;;5054755;28;19924;-77
2023/05/13 09:42:16;;;;;;;;;;;25.90;92.70;;;;;;5053333;28;19925;-74
2023/05/13 09:47:17;;;;;;;;;;;25.70;91.50;;;;;;4859338;26;20540;-76
2023/05/13 09:49:44;;;;;;;;;;;25.90;91.80;;;;;;5036770;28;19925;-76
2023/05/13 09:52:10;;;;;;;;;;;26.00;92.60;;;;;;5037328;28;20402;-75
2023/05/13 09:54:39;;;;;;;;;;;26.20;91.90;;;;;;5054639;28;19925;-75
2023/05/13 09:57:13;;;;;;;;;;;26.30;91.40;;;;;;5055735;28;19933;-75
2023/05/13 09:59:40;;;;;;;;;;;26.10;90.50;;;;;;5045116;23;19925;-76
2023/05/13 10:02:06;;;;;;;;;;;25.20;90.90;;;;;;5055625;28;19947;-77
2023/05/13 10:07:57;;;;;;;;;;;25.80;91.30;;;;;;5001222;28;19933;-75
2023/05/13 10:10:27;;;;;;;;;;;25.80;92.10;;;;;;5055333;28;19931;-77
2023/05/13 10:13:02;;;;;;;;;;;25.80;91.10;;;;;;5037050;28;19925;-75
2023/05/13 10:15:28;;;;;;;;;;;25.80;91.50;;;;;;5037831;28;20025;-74
2023/05/13 10:17:54;;;;;;;;;;;25.70;91.40;;;;;;5055481;28;19929;-76
2023/05/13 10:20:21;;;;;;;;;;;25.60;90.90;;;;;;5037202;28;19931;-79
2023/05/13 10:22:50;;;;;;;;;;;25.70;90.70;;;;;;5037470;28;19968;-76
2023/05/13 10:25:16;;;;;;;;;;;25.80;91.60;;;;;;5055015;28;20027;-75
2023/05/13 10:27:43;;;;;;;;;;;25.70;90.80;;;;;;5053728;28;20008;-76
2023/05/13 10:30:09;;;;;;;;;;;25.90;90.70;;;;;;5037293;28;19928;-75
2023/05/13 10:32:36;;;;;;;;;;;25.90;91.10;;;;;;5053531;28;19972;-77
2023/05/13 10:35:12;;;;;;;;;;;26.10;91.50;;;;;;5053806;28;19959;-76
2023/05/13 10:37:48;;;;;;;;;;;25.60;91.10;;;;;;5055025;28;19932;-77
2023/05/13 10:40:14;;;;;;;;;;;25.60;91.00;;;;;;5053507;28;19920;-78
2023/05/13 10:42:43;;;;;;;;;;;25.60;91.80;;;;;;5053079;28;19978;-78
2023/05/13 10:45:15;;;;;;;;;;;25.30;91.30;;;;;;5051550;28;19929;-78
2023/05/13 10:47:43;;;;;;;;;;;25.50;92.20;;;;;;5052410;28;19925;-77
2023/05/13 10:50:22;;;;;;;;;;;25.70;93.10;;;;;;5052987;28;19948;-77
2023/05/13 10:52:48;;;;;;;;;;;25.50;91.00;;;;;;5052557;28;19924;-76
2023/05/13 10:55:15;;;;;;;;;;;25.40;92.00;;;;;;5053161;28;19924;-77
2023/05/13 10:57:41;;;;;;;;;;;25.60;91.30;;;;;;5037715;28;20019;-77
2023/05/13 11:00:14;;;;;;;;;;;25.50;92.10;;;;;;5036790;28;19968;-78
2023/05/13 11:02:39;;;;;;;;;;;25.40;91.80;;;;;;5053710;28;20288;-77
2023/05/13 11:05:08;;;;;;;;;;;25.30;91.60;;;;;;5037046;28;20106;-77
2023/05/13 11:07:38;;;;;;;;;;;25.30;91.70;;;;;;5053239;28;19947;-77
2023/05/13 11:10:22;;;;;;;;;;;25.20;91.70;;;;;;5055164;28;19925;-81
2023/05/13 11:13:07;;;;;;;;;;;25.30;92.70;;;;;;5054756;28;19959;-78
2023/05/13 11:15:53;;;;;;;;;;;25.20;91.40;;;;;;5055058;28;19925;-79
2023/05/13 11:18:32;;;;;;;;;;;25.10;91.90;;;;;;5039745;28;19931;-80
2023/05/13 11:21:02;;;;;;;;;;;25.00;91.60;;;;;;5056438;28;19924;-79
2023/05/13 11:23:31;;;;;;;;;;;24.90;91.80;;;;;;5057968;28;19963;-79
2023/05/13 11:26:15;;;;;;;;;;;25.00;92.30;;;;;;5042523;28;19925;-79
2023/05/13 11:28:53;;;;;;;;;;;25.10;93.20;;;;;;5055514;28;19929;-78
2023/05/13 11:31:20;;;;;;;;;;;25.10;91.60;;;;;;5037838;28;19921;-78
2023/05/13 11:34:18;;;;;;;;;;;24.90;91.30;;;;;;5036857;28;20234;-78
2023/05/13 11:36:50;;;;;;;;;;;24.80;90.80;;;;;;5030294;28;20456;-78
2023/05/13 11:39:25;;;;;;;;;;;24.80;91.70;;;;;;5036203;28;19978;-78
2023/05/13 11:41:51;;;;;;;;;;;24.70;91.40;;;;;;5054256;28;19935;-78
2023/05/13 11:44:19;;;;;;;;;;;24.90;92.90;;;;;;5035782;28;19931;-77
2023/05/13 11:46:48;;;;;;;;;;;24.60;91.80;;;;;;5054685;28;19921;-79
2023/05/13 11:49:27;;;;;;;;;;;24.60;92.50;;;;;;5053939;28;20023;-76
2023/05/13 11:51:57;;;;;;;;;;;24.70;93.50;;;;;;5054019;28;19951;-75
2023/05/13 11:54:22;;;;;;;;;;;24.50;91.00;;;;;;5054747;28;19925;-78
2023/05/13 11:56:48;;;;;;;;;;;24.70;91.50;;;;;;5036199;28;19921;-80
2023/05/13 11:59:14;;;;;;;;;;;24.70;91.90;;;;;;5032768;28;19936;-76
2023/05/13 12:51:01;;;;;;;;;;;24.00;93.10;;;;;;6074231;22;19950;-77
2023/05/13 12:53:28;;;;;;;;;;;23.20;93.70;;;;;;5052580;28;19964;-77
2023/05/13 12:56:12;;;;;;;;;;;24.20;93.90;;;;;;5052509;28;19960;-76
2023/05/13 12:58:44;;;;;;;;;;;24.00;94.10;;;;;;5053425;28;19925;-77
2023/05/13 13:01:09;;;;;;;;;;;23.00;94.90;;;;;;5052041;28;20384;-77
2023/05/13 13:03:35;;;;;;;;;;;23.70;93.70;;;;;;5034950;28;19931;-77
2023/05/13 13:06:03;;;;;;;;;;;23.70;94.40;;;;;;5046962;28;19925;-77
2023/05/13 13:08:29;;;;;;;;;;;23.50;94.50;;;;;;5034267;28;20015;-77
2023/05/13 13:10:55;;;;;;;;;;;23.50;95.60;;;;;;5052814;28;20020;-77
2023/05/13 13:13:21;;;;;;;;;;;23.50;95.00;;;;;;5035534;28;19964;-78
2023/05/13 13:15:49;;;;;;;;;;;23.40;94.70;;;;;;5033953;28;19925;-78
2023/05/13 13:18:15;;;;;;;;;;;23.30;95.10;;;;;;5035482;28;19925;-78
2023/05/13 13:20:40;;;;;;;;;;;23.20;94.40;;;;;;5052947;28;19924;-78
2023/05/13 13:23:06;;;;;;;;;;;23.10;95.10;;;;;;5051767;28;19940;-79
2023/05/13 13:25:35;;;;;;;;;;;23.20;95.20;;;;;;5034947;28;19932;-79
2023/05/13 13:28:01;;;;;;;;;;;23.30;96.60;;;;;;5052864;28;19970;-79
2023/05/13 13:30:26;;;;;;;;;;;23.30;95.10;;;;;;5052882;28;19925;-77
2023/05/13 13:32:52;;;;;;;;;;;23.30;94.60;;;;;;5052638;28;19925;-77
2023/05/13 13:35:18;;;;;;;;;;;23.30;94.40;;;;;;5051912;28;19924;-76
2023/05/13 13:37:43;;;;;;;;;;;23.20;94.60;;;;;;5055599;28;19939;-78
2023/05/13 13:40:09;;;;;;;;;;;23.10;93.80;;;;;;5053004;28;19928;-78
2023/05/13 13:42:35;;;;;;;;;;;23.00;94.80;;;;;;5032929;28;19979;-77
2023/05/13 13:45:02;;;;;;;;;;;23.00;94.30;;;;;;5035057;28;19925;-77
2023/05/13 13:47:27;;;;;;;;;;;22.90;95.90;;;;;;5053613;28;19924;-78
2023/05/13 13:49:53;;;;;;;;;;;23.00;95.10;;;;;;5037639;28;19932;-79
2023/05/13 13:52:19;;;;;;;;;;;23.10;94.70;;;;;;5038149;28;19936;-78
2023/05/13 13:54:44;;;;;;;;;;;23.00;94.50;;;;;;5056548;28;19925;-77
2023/05/13 13:57:10;;;;;;;;;;;23.00;95.10;;;;;;5037565;28;19925;-75
2023/05/13 13:59:35;;;;;;;;;;;23.00;93.80;;;;;;5055957;28;19971;-75
2023/05/13 14:02:01;;;;;;;;;;;23.10;93.90;;;;;;5038104;28;19925;-76
2023/05/13 14:04:29;;;;;;;;;;;23.20;94.00;;;;;;5029336;28;19937;-78
2023/05/13 14:06:56;;;;;;;;;;;23.00;94.70;;;;;;5031177;28;20305;-78
2023/05/13 14:09:22;;;;;;;;;;;23.10;93.60;;;;;;5047735;28;19971;-78
2023/05/13 14:11:47;;;;;;;;;;;23.10;93.80;;;;;;5037561;28;19925;-77
2023/05/13 14:14:13;;;;;;;;;;;22.90;94.10;;;;;;5055271;28;19979;-77
2023/05/13 14:16:39;;;;;;;;;;;22.80;93.60;;;;;;5037814;28;19924;-78
2023/05/13 14:19:04;;;;;;;;;;;22.70;93.60;;;;;;5036082;28;20281;-78
2023/05/13 14:21:30;;;;;;;;;;;22.70;94.20;;;;;;5037069;28;19925;-78
2023/05/13 14:23:55;;;;;;;;;;;22.60;93.80;;;;;;5036058;28;19936;-77
2023/05/13 14:26:21;;;;;;;;;;;22.60;94.00;;;;;;5023314;28;20384;-74
2023/05/13 14:28:46;;;;;;;;;;;22.50;94.40;;;;;;5023739;28;19925;-75
2023/05/13 14:31:12;;;;;;;;;;;22.50;94.60;;;;;;5034968;28;19928;-77
2023/05/13 14:33:41;;;;;;;;;;;22.40;94.30;;;;;;5035267;28;20364;-76
2023/05/13 14:36:08;;;;;;;;;;;22.40;94.10;;;;;;5036601;28;19932;-75
2023/05/13 14:38:34;;;;;;;;;;;22.30;94.10;;;;;;5014650;28;19972;-75
2023/05/13 14:40:59;;;;;;;;;;;22.40;94.30;;;;;;5016687;28;20014;-75
2023/05/13 14:43:28;;;;;;;;;;;22.40;94.30;;;;;;5021884;28;19933;-74
2023/05/13 14:45:55;;;;;;;;;;;22.40;95.00;;;;;;5029712;28;19947;-75
2023/05/13 14:48:20;;;;;;;;;;;22.50;95.10;;;;;;5052342;28;19972;-74
2023/05/13 14:50:46;;;;;;;;;;;22.60;94.50;;;;;;5034898;28;20014;-75
2023/05/13 15:09:33;;;;;;;;;;;22.40;94.30;;;;;;1330226;22;20197;-73
2023/05/13 15:12:08;;;;;;;;;;;23.10;94.50;;;;;;5059123;28;19933;-73
2023/05/13 15:14:36;;;;;;;;;;;22.20;94.40;;;;;;5054211;28;19932;-73
2023/05/13 15:17:04;;;;;;;;;;;21.60;94.60;;;;;;5035814;28;19925;-73
2023/05/13 15:19:33;;;;;;;;;;;21.90;94.00;;;;;;5034087;28;19932;-73
2023/05/13 15:21:59;;;;;;;;;;;21.80;94.60;;;;;;5033350;28;19929;-74
2023/05/13 15:25:11;;;;;;;;;;;21.80;94.30;;;;;;5033996;28;19964;-73
2023/05/13 15:27:39;;;;;;;;;;;21.60;94.10;;;;;;5043062;28;19932;-74
2023/05/13 15:33:38;;;;;;;;;;;22.00;94.10;;;;;;4988608;28;20030;-74
2023/05/13 15:46:00;;;;;;;;;;;21.20;95.50;;;;;;4983078;28;19929;-75
2023/05/13 15:51:57;;;;;;;;;;;20.90;94.90;;;;;;4985638;28;19987;-74
2023/05/13 16:56:16;;;;;;;;;;;18.60;99.60;;;;;;5052781;28;19925;-78
2023/05/13 16:58:42;;;;;;;;;;;18.80;99.90;;;;;;5047496;28;19924;-81
2023/05/13 17:05:05;;;;;;;;;;;18.90;99.90;;;;;;5058088;28;19982;-80
2023/05/13 17:07:51;;;;;;;;;;;18.40;99.90;;;;;;5045201;28;20025;-74
2023/05/13 17:21:06;;;;;;;;;;;17.80;99.90;;;;;;5067157;28;19913;-79
2023/05/13 17:27:44;;;;;;;;;;;17.50;99.90;;;;;;5076543;28;19958;-76
2023/05/13 17:30:16;;;;;;;;;;;16.70;99.90;;;;;;5070921;28;19931;-74
2023/05/13 17:32:44;;;;;;;;;;;17.20;99.90;;;;;;5065351;28;19924;-75
2023/05/13 17:35:10;;;;;;;;;;;17.10;99.90;;;;;;5056732;28;20470;-76
2023/05/13 17:37:35;;;;;;;;;;;17.00;99.90;;;;;;5068691;28;20047;-76
2023/05/13 17:40:01;;;;;;;;;;;16.80;99.90;;;;;;5074761;28;19972;-76
2023/05/13 17:42:29;;;;;;;;;;;16.70;99.90;;;;;;5056722;28;19925;-79
2023/05/13 17:44:54;;;;;;;;;;;16.60;99.90;;;;;;5057748;28;20493;-79
2023/05/13 17:47:20;;;;;;;;;;;16.60;99.90;;;;;;5056941;28;20018;-76
2023/05/13 17:49:46;;;;;;;;;;;16.50;99.90;;;;;;5074748;28;20043;-76
2023/05/13 17:52:12;;;;;;;;;;;16.40;99.90;;;;;;5064837;28;20013;-76
2023/05/13 17:54:37;;;;;;;;;;;16.30;99.90;;;;;;5063389;28;19929;-77
2023/05/13 17:57:03;;;;;;;;;;;16.30;99.90;;;;;;5046661;28;19932;-76
2023/05/13 17:59:29;;;;;;;;;;;16.20;99.90;;;;;;5050385;28;19928;-75
2023/05/13 18:01:54;;;;;;;;;;;16.20;99.90;;;;;;5048765;28;19953;-78
2023/05/13 18:04:20;;;;;;;;;;;16.20;99.90;;;;;;5068002;28;20303;-78
2023/05/13 18:06:48;;;;;;;;;;;16.20;99.90;;;;;;5074205;28;20024;-80
2023/05/13 18:09:14;;;;;;;;;;;16.20;99.90;;;;;;5067302;28;19975;-74
2023/05/13 18:11:40;;;;;;;;;;;16.10;99.90;;;;;;5045034;28;19924;-81
2023/05/13 18:19:24;;;;;;;;;;;16.00;99.90;;;;;;5463574;22;19935;-78
2023/05/13 20:14:47;;;;;;;;;;;13.20;99.90;;;;;;2901046;23;19933;-75
2023/05/13 20:17:19;;;;;;;;;;;12.40;99.90;;;;;;4952970;29;19927;-72
2023/05/13 20:19:48;;;;;;;;;;;12.30;99.90;;;;;;4951191;28;19923;-80
2023/05/13 22:00:02;;;;;;;;;;;10.20;99.90;;;;;;4876626;29;19972;-75
2023/05/13 22:06:35;;;;;;;;;;;11.10;99.90;;;;;;4879685;29;20395;-74
2023/05/13 22:25:16;;;;;;;;;;;10.80;99.90;;;;;;4957463;29;19934;-75
2023/05/13 22:38:25;;;;;;;;;;;11.20;99.90;;;;;;4956677;29;19918;-77
2023/05/13 22:44:28;;;;;;;;;;;9.80;99.90;;;;;;4942281;29;19933;-73
2023/05/13 23:32:33;;;;;;;;;;;10.50;99.90;;;;;;4912244;29;19994;-75
2023/05/13 23:56:33;;;;;;;;;;;9.00;99.90;;;;;;4916758;29;19938;-76
2023/05/13 23:58:58;;;;;;;;;;;10.80;99.90;;;;;;4931288;29;20013;-75
